| time (UTC) | temp F | wind direction | speed MPH | gust MPH | rain 1hr in | rain 24hr in | rain mn in | humidity % | barometer mb |
| 20260503004810 | 65 | 0.0 | 0.0 | 0.00 | 0.00 | 0.00 | 50 | 1026.6 | |
| 20260503003315 | 65 | 0.0 | 0.0 | 0.00 | 0.00 | 0.00 | 50 | 1026.6 | |
| 20260503001810 | 65 | 0.0 | 0.0 | 0.00 | 0.00 | 0.00 | 50 | 1026.6 | |
| 20260503000311 | 65 | 0.0 | 0.0 | 0.00 | 0.00 | 0.00 | 50 | 1026.6 | |
| 20260502234810 | 65 | 0.0 | 0.0 | 0.00 | 0.00 | 0.00 | 50 | 1026.6 | |
| 20260502233310 | 65 | 0.0 | 0.0 | 0.00 | 0.00 | 0.00 | 50 | 1026.6 | |
| 20260502231810 | 65 | 0.0 | 0.0 | 0.00 | 0.00 | 0.00 | 50 | 1026.6 | |
| 20260502230311 | 65 | 0.0 | 0.0 | 0.00 | 0.00 | 0.00 | 50 | 1026.6 | |
| 20260502224810 | 65 | 0.0 | 0.0 | 0.00 | 0.00 | 0.00 | 50 | 1026.6 | |
| 20260502223311 | 65 | 0.0 | 0.0 | 0.00 | 0.00 | 0.00 | 50 | 1026.6 | |
| 20260502221810 | 65 | 0.0 | 0.0 | 0.00 | 0.00 | 0.00 | 50 | 1026.6 | |
| 20260502220310 | 65 | 0.0 | 0.0 | 0.00 | 0.00 | 0.00 | 50 | 1026.6 | |
| 20260502214810 | 65 | 0.0 | 0.0 | 0.00 | 0.00 | 0.00 | 50 | 1026.6 | |
| 20260502213310 | 66 | 0.0 | 0.0 | 0.00 | 0.00 | 0.00 | 49 | 1026.4 | |
| 20260502211811 | 66 | 0.0 | 0.0 | 0.00 | 0.00 | 0.00 | 49 | 1026.4 | |
| 20260502210310 | 66 | 0.0 | 0.0 | 0.00 | 0.00 | 0.00 | 49 | 1026.4 | |
| 20260502204810 | 66 | 0.0 | 0.0 | 0.00 | 0.00 | 0.00 | 48 | 1026.3 | |
| 20260502203310 | 67 | 0.0 | 0.0 | 0.00 | 0.00 | 0.00 | 48 | 1026.3 | |
| 20260502201810 | 68 | 0.0 | 0.0 | 0.00 | 0.00 | 0.00 | 46 | 1025.7 | |
| 20260502200310 | 68 | 0.0 | 0.0 | 0.00 | 0.00 | 0.00 | 46 | 1025.7 | |
| 20260502194810 | 68 | 0.0 | 0.0 | 0.00 | 0.00 | 0.00 | 46 | 1025.7 | |
| 20260502193311 | 68 | 0.0 | 0.0 | 0.00 | 0.00 | 0.00 | 46 | 1025.7 | |
| 20260502191810 | 69 | 0.0 | 0.0 | 0.00 | 0.00 | 0.00 | 46 | 1025.8 | |
| 20260502190310 | 69 | 0.0 | 0.0 | 0.00 | 0.00 | 0.00 | 45 | 1025.4 | |
| 20260502184810 | 70 | 0.0 | 0.0 | 0.00 | 0.00 | 0.00 | 45 | 1025.4 | |
| 20260502183310 | 70 | 0.0 | 0.0 | 0.00 | 0.00 | 0.00 | 45 | 1025.2 | |
| 20260502181811 | 71 | 0.0 | 0.0 | 0.00 | 0.00 | 0.00 | 44 | 1025.0 | |
| 20260502180311 | 72 | 0.0 | 0.0 | 0.00 | 0.00 | 0.00 | 44 | 1024.8 | |
| 20260502170310 | 74 | 0.0 | 0.0 | 0.00 | 0.00 | 0.00 | 40 | 1024.4 | |
| 20260502163310 | 75 | 0.0 | 0.0 | 0.00 | 0.00 | 0.00 | 39 | 1024.5 | |
| 20260502161810 | 75 | 0.0 | 0.0 | 0.00 | 0.00 | 0.00 | 39 | 1024.6 | |
| 20260502160310 | 76 | 0.0 | 0.0 | 0.00 | 0.00 | 0.00 | 38 | 1024.7 | |
| 20260502151810 | 76 | 0.0 | 0.0 | 0.00 | 0.00 | 0.00 | 38 | 1025.0 | |
| 20260502150310 | 76 | 0.0 | 0.0 | 0.00 | 0.00 | 0.00 | 38 | 1025.1 | |
| 20260502130310 | 74 | 0.0 | 0.0 | 0.00 | 0.00 | 0.00 | 41 | 1027.1 | |
| 20260502123310 | 73 | 0.0 | 0.0 | 0.00 | 0.00 | 0.00 | 42 | 1027.8 | |
| 20260502121810 | 72 | 0.0 | 0.0 | 0.00 | 0.00 | 0.00 | 43 | 1027.9 | |
| 20260502120310 | 71 | 0.0 | 0.0 | 0.00 | 0.00 | 0.00 | 43 | 1028.2 | |
| 20260502114810 | 71 | 0.0 | 0.0 | 0.00 | 0.00 | 0.00 | 44 | 1028.3 | |
| 20260502113310 | 70 | 0.0 | 0.0 | 0.00 | 0.00 | 0.00 | 46 | 1028.6 | |
| 20260502111810 | 69 | 0.0 | 0.0 | 0.00 | 0.00 | 0.00 | 47 | 1028.8 | |
| 20260502110310 | 68 | 0.0 | 0.0 | 0.00 | 0.00 | 0.00 | 48 | 1029.3 | |
| 20260502104810 | 68 | 0.0 | 0.0 | 0.00 | 0.00 | 0.00 | 50 | 1029.6 | |
| 20260502103310 | 67 | 0.0 | 0.0 | 0.00 | 0.00 | 0.00 | 51 | 1030.0 | |
| 20260502101810 | 67 | 0.0 | 0.0 | 0.00 | 0.00 | 0.00 | 53 | 1030.1 | |
| 20260502100310 | 66 | 0.0 | 0.0 | 0.00 | 0.00 | 0.00 | 54 | 1030.4 | |
| 20260502090310 | 62 | 0.0 | 0.0 | 0.00 | 0.00 | 0.00 | 62 | 1031.5 | |
| 20260502070310 | 54 | 0.0 | 0.0 | 0.00 | 0.00 | 0.00 | 66 | 1032.3 | |
| 20260502064810 | 54 | 0.0 | 0.0 | 0.00 | 0.00 | 0.00 | 66 | 1032.5 | |
| 20260502063310 | 53 | 0.0 | 0.0 | 0.00 | 0.00 | 0.00 | 65 | 1032.6 | |
| 20260502061810 | 53 | 0.0 | 0.0 | 0.00 | 0.00 | 0.00 | 65 | 1032.5 | |
| 20260502060310 | 53 | 0.0 | 0.0 | 0.00 | 0.00 | 0.00 | 65 | 1032.6 | |
| 20260502054810 | 53 | 0.0 | 0.0 | 0.00 | 0.00 | 0.00 | 65 | 1032.9 | |
| 20260502053310 | 53 | 0.0 | 0.0 | 0.00 | 0.00 | 0.00 | 65 | 1032.7 | |
| 20260502051810 | 53 | 0.0 | 0.0 | 0.00 | 0.00 | 0.00 | 64 | 1032.6 | |
| 20260502050310 | 53 | 0.0 | 0.0 | 0.00 | 0.00 | 0.00 | 64 | 1032.7 | |
| 20260502044810 | 53 | 0.0 | 0.0 | 0.00 | 0.00 | 0.00 | 64 | 1032.6 | |
| 20260502043310 | 53 | 0.0 | 0.0 | 0.00 | 0.00 | 0.00 | 63 | 1032.5 | |
| 20260502041810 | 53 | 0.0 | 0.0 | 0.00 | 0.00 | 0.00 | 63 | 1032.4 | |
| 20260502040310 | 53 | 0.0 | 0.0 | 0.00 | 0.00 | 0.00 | 63 | 1032.4 | |
| 20260502034810 | 53 | 0.0 | 0.0 | 0.00 | 0.00 | 0.00 | 63 | 1032.3 | |
| 20260502033310 | 54 | 0.0 | 0.0 | 0.00 | 0.00 | 0.00 | 62 | 1032.2 | |
| 20260502031810 | 54 | 0.0 | 0.0 | 0.00 | 0.00 | 0.00 | 62 | 1032.3 | |
| 20260502030310 | 55 | 0.0 | 0.0 | 0.00 | 0.00 | 0.00 | 61 | 1032.1 | |
| 20260502024810 | 55 | 0.0 | 0.0 | 0.00 | 0.00 | 0.00 | 61 | 1032.1 | |
| 20260502023310 | 55 | 0.0 | 0.0 | 0.00 | 0.00 | 0.00 | 61 | 1032.1 | |
| 20260502021810 | 55 | 0.0 | 0.0 | 0.00 | 0.00 | 0.00 | 61 | 1032.1 | |
| 20260502020310 | 55 | 0.0 | 0.0 | 0.00 | 0.00 | 0.00 | 60 | 1032.1 | |
| 20260502014810 | 55 | 0.0 | 0.0 | 0.00 | 0.00 | 0.00 | 60 | 1031.9 | |
| 20260502013310 | 55 | 0.0 | 0.0 | 0.00 | 0.00 | 0.00 | 60 | 1032.0 | |
| 20260502011810 | 56 | 0.0 | 0.0 | 0.00 | 0.00 | 0.00 | 59 | 1032.0 | |
| 20260502010310 | 56 | 0.0 | 0.0 | 0.00 | 0.00 | 0.00 | 59 | 1032.0 |